sensor_id;sensor_type;location;lat;lon;timestamp;pressure;altitude;pressure_sealevel;temperature
68911;BMP180;55953;51.650;-0.522;2023-05-10T00:00:05;100164.80;;;12.10
68911;BMP180;55953;51.650;-0.522;2023-05-10T00:02:59;100158.80;;;12.10
68911;BMP180;55953;51.650;-0.522;2023-05-10T00:05:27;100163.80;;;12.10
68911;BMP180;55953;51.650;-0.522;2023-05-10T00:07:55;100168.20;;;12.10
68911;BMP180;55953;51.650;-0.522;2023-05-10T00:10:23;100165.20;;;12.00
68911;BMP180;55953;51.650;-0.522;2023-05-10T00:12:51;100168.80;;;12.00
68911;BMP180;55953;51.650;-0.522;2023-05-10T00:15:19;100167.40;;;12.00
68911;BMP180;55953;51.650;-0.522;2023-05-10T00:17:47;100168.20;;;11.90
68911;BMP180;55953;51.650;-0.522;2023-05-10T00:20:15;100170.80;;;11.90
68911;BMP180;55953;51.650;-0.522;2023-05-10T00:22:43;100163.40;;;11.90
68911;BMP180;55953;51.650;-0.522;2023-05-10T00:25:11;100169.20;;;11.90
68911;BMP180;55953;51.650;-0.522;2023-05-10T00:27:39;100169.60;;;11.88
68911;BMP180;55953;51.650;-0.522;2023-05-10T00:30:07;100176.80;;;11.80
68911;BMP180;55953;51.650;-0.522;2023-05-10T00:32:35;100174.00;;;11.80
68911;BMP180;55953;51.650;-0.522;2023-05-10T00:35:03;100181.00;;;11.80
68911;BMP180;55953;51.650;-0.522;2023-05-10T00:37:31;100179.60;;;11.78
68911;BMP180;55953;51.650;-0.522;2023-05-10T00:39:59;100177.60;;;11.70
68911;BMP180;55953;51.650;-0.522;2023-05-10T00:42:27;100177.80;;;11.70
68911;BMP180;55953;51.650;-0.522;2023-05-10T00:44:55;100184.20;;;11.70
68911;BMP180;55953;51.650;-0.522;2023-05-10T00:47:23;100174.40;;;11.60
68911;BMP180;55953;51.650;-0.522;2023-05-10T00:49:52;100175.60;;;11.60
68911;BMP180;55953;51.650;-0.522;2023-05-10T00:52:19;100175.00;;;11.60
68911;BMP180;55953;51.650;-0.522;2023-05-10T00:54:48;100183.40;;;11.60
68911;BMP180;55953;51.650;-0.522;2023-05-10T00:57:16;100189.00;;;11.60
68911;BMP180;55953;51.650;-0.522;2023-05-10T00:59:44;100189.40;;;11.50
68911;BMP180;55953;51.650;-0.522;2023-05-10T01:02:13;100180.40;;;11.50
68911;BMP180;55953;51.650;-0.522;2023-05-10T01:04:43;100185.20;;;11.50
68911;BMP180;55953;51.650;-0.522;2023-05-10T01:07:11;100184.80;;;11.40
68911;BMP180;55953;51.650;-0.522;2023-05-10T01:09:39;100189.20;;;11.40
68911;BMP180;55953;51.650;-0.522;2023-05-10T01:12:07;100189.60;;;11.40
68911;BMP180;55953;51.650;-0.522;2023-05-10T01:14:38;100184.60;;;11.40
68911;BMP180;55953;51.650;-0.522;2023-05-10T01:17:07;100187.00;;;11.40
68911;BMP180;55953;51.650;-0.522;2023-05-10T01:19:36;100188.80;;;11.40
68911;BMP180;55953;51.650;-0.522;2023-05-10T01:31:50;100190.20;;;11.40
68911;BMP180;55953;51.650;-0.522;2023-05-10T01:34:27;100196.20;;;11.40
68911;BMP180;55953;51.650;-0.522;2023-05-10T01:37:11;100189.20;;;11.40
68911;BMP180;55953;51.650;-0.522;2023-05-10T01:39:50;100184.60;;;11.34
68911;BMP180;55953;51.650;-0.522;2023-05-10T01:42:29;100188.60;;;11.40
68911;BMP180;55953;51.650;-0.522;2023-05-10T01:45:20;100192.20;;;11.40
68911;BMP180;55953;51.650;-0.522;2023-05-10T01:48:05;100202.80;;;11.36
68911;BMP180;55953;51.650;-0.522;2023-05-10T01:50:37;100199.80;;;11.28
68911;BMP180;55953;51.650;-0.522;2023-05-10T01:53:08;100202.20;;;11.20
68911;BMP180;55953;51.650;-0.522;2023-05-10T01:55:48;100203.80;;;11.20
68911;BMP180;55953;51.650;-0.522;2023-05-10T01:58:39;100204.20;;;11.20
68911;BMP180;55953;51.650;-0.522;2023-05-10T02:01:08;100202.60;;;11.20
68911;BMP180;55953;51.650;-0.522;2023-05-10T02:03:39;100207.60;;;11.20
68911;BMP180;55953;51.650;-0.522;2023-05-10T02:06:10;100209.60;;;11.20
68911;BMP180;55953;51.650;-0.522;2023-05-10T02:08:39;100209.80;;;11.10
68911;BMP180;55953;51.650;-0.522;2023-05-10T02:11:12;100214.20;;;11.10
68911;BMP180;55953;51.650;-0.522;2023-05-10T02:13:41;100218.00;;;11.10
68911;BMP180;55953;51.650;-0.522;2023-05-10T02:16:13;100218.20;;;11.10
68911;BMP180;55953;51.650;-0.522;2023-05-10T02:18:41;100217.60;;;11.10
68911;BMP180;55953;51.650;-0.522;2023-05-10T02:21:11;100216.00;;;11.10
68911;BMP180;55953;51.650;-0.522;2023-05-10T02:23:42;100219.00;;;11.04
68911;BMP180;55953;51.650;-0.522;2023-05-10T02:26:11;100217.60;;;11.00
68911;BMP180;55953;51.650;-0.522;2023-05-10T02:28:42;100225.60;;;11.00
68911;BMP180;55953;51.650;-0.522;2023-05-10T02:31:11;100219.60;;;11.00
68911;BMP180;55953;51.650;-0.522;2023-05-10T02:33:40;100225.60;;;11.00
68911;BMP180;55953;51.650;-0.522;2023-05-10T02:36:10;100225.00;;;11.00
68911;BMP180;55953;51.650;-0.522;2023-05-10T02:38:38;100222.40;;;11.02
68911;BMP180;55953;51.650;-0.522;2023-05-10T02:41:09;100224.40;;;11.08
68911;BMP180;55953;51.650;-0.522;2023-05-10T02:43:40;100223.60;;;11.06
68911;BMP180;55953;51.650;-0.522;2023-05-10T02:46:08;100217.80;;;11.06
68911;BMP180;55953;51.650;-0.522;2023-05-10T02:48:36;100232.80;;;11.10
68911;BMP180;55953;51.650;-0.522;2023-05-10T02:51:07;100225.40;;;11.10
68911;BMP180;55953;51.650;-0.522;2023-05-10T02:53:40;100229.40;;;11.10
68911;BMP180;55953;51.650;-0.522;2023-05-10T02:56:24;100238.40;;;11.10
68911;BMP180;55953;51.650;-0.522;2023-05-10T02:58:53;100238.00;;;11.10
68911;BMP180;55953;51.650;-0.522;2023-05-10T03:01:21;100240.00;;;11.06
68911;BMP180;55953;51.650;-0.522;2023-05-10T03:03:49;100245.60;;;11.02
68911;BMP180;55953;51.650;-0.522;2023-05-10T03:06:16;100244.00;;;11.00
68911;BMP180;55953;51.650;-0.522;2023-05-10T03:08:45;100243.00;;;11.00
68911;BMP180;55953;51.650;-0.522;2023-05-10T03:12:08;100245.20;;;11.00
68911;BMP180;55953;51.650;-0.522;2023-05-10T03:17:33;100245.80;;;10.90
68911;BMP180;55953;51.650;-0.522;2023-05-10T03:20:09;100238.00;;;10.88
68911;BMP180;55953;51.650;-0.522;2023-05-10T03:22:49;100242.80;;;10.82
68911;BMP180;55953;51.650;-0.522;2023-05-10T03:25:19;100239.60;;;10.80
68911;BMP180;55953;51.650;-0.522;2023-05-10T03:27:49;100244.00;;;10.80
68911;BMP180;55953;51.650;-0.522;2023-05-10T03:30:18;100243.40;;;10.70
68911;BMP180;55953;51.650;-0.522;2023-05-10T03:32:47;100240.00;;;10.70
68911;BMP180;55953;51.650;-0.522;2023-05-10T03:35:16;100235.40;;;10.70
68911;BMP180;55953;51.650;-0.522;2023-05-10T03:37:44;100237.60;;;10.60
68911;BMP180;55953;51.650;-0.522;2023-05-10T03:40:12;100244.20;;;10.60
68911;BMP180;55953;51.650;-0.522;2023-05-10T03:42:41;100249.40;;;10.60
68911;BMP180;55953;51.650;-0.522;2023-05-10T03:45:09;100248.40;;;10.56
68911;BMP180;55953;51.650;-0.522;2023-05-10T03:47:37;100257.60;;;10.50
68911;BMP180;55953;51.650;-0.522;2023-05-10T03:50:06;100261.40;;;10.50
68911;BMP180;55953;51.650;-0.522;2023-05-10T03:52:34;100265.80;;;10.40
68911;BMP180;55953;51.650;-0.522;2023-05-10T03:55:02;100265.00;;;10.30
68911;BMP180;55953;51.650;-0.522;2023-05-10T03:57:31;100270.20;;;10.30
68911;BMP180;55953;51.650;-0.522;2023-05-10T04:00:00;100266.20;;;10.30
68911;BMP180;55953;51.650;-0.522;2023-05-10T04:02:28;100265.20;;;10.20
68911;BMP180;55953;51.650;-0.522;2023-05-10T04:04:58;100268.20;;;10.18
68911;BMP180;55953;51.650;-0.522;2023-05-10T04:07:25;100266.40;;;10.10
68911;BMP180;55953;51.650;-0.522;2023-05-10T04:09:53;100273.20;;;10.10
68911;BMP180;55953;51.650;-0.522;2023-05-10T04:12:22;100280.40;;;10.08
68911;BMP180;55953;51.650;-0.522;2023-05-10T04:14:50;100283.00;;;10.00
68911;BMP180;55953;51.650;-0.522;2023-05-10T04:17:19;100280.60;;;10.00
68911;BMP180;55953;51.650;-0.522;2023-05-10T04:19:47;100281.40;;;10.00
68911;BMP180;55953;51.650;-0.522;2023-05-10T04:22:15;100282.60;;;9.96
68911;BMP180;55953;51.650;-0.522;2023-05-10T04:24:43;100288.00;;;9.90
68911;BMP180;55953;51.650;-0.522;2023-05-10T04:27:11;100285.60;;;9.90
68911;BMP180;55953;51.650;-0.522;2023-05-10T04:29:39;100285.40;;;9.94
68911;BMP180;55953;51.650;-0.522;2023-05-10T04:32:07;100289.20;;;9.98
68911;BMP180;55953;51.650;-0.522;2023-05-10T04:34:36;100286.00;;;10.00
68911;BMP180;55953;51.650;-0.522;2023-05-10T04:37:04;100283.80;;;10.00
68911;BMP180;55953;51.650;-0.522;2023-05-10T04:39:33;100285.20;;;10.00
68911;BMP180;55953;51.650;-0.522;2023-05-10T04:42:02;100281.80;;;9.94
68911;BMP180;55953;51.650;-0.522;2023-05-10T04:44:34;100283.80;;;9.98
68911;BMP180;55953;51.650;-0.522;2023-05-10T04:47:02;100294.00;;;10.00
68911;BMP180;55953;51.650;-0.522;2023-05-10T04:49:30;100296.40;;;10.00
68911;BMP180;55953;51.650;-0.522;2023-05-10T04:51:58;100296.40;;;10.00
68911;BMP180;55953;51.650;-0.522;2023-05-10T04:54:26;100304.40;;;10.00
68911;BMP180;55953;51.650;-0.522;2023-05-10T04:56:54;100310.20;;;10.00
68911;BMP180;55953;51.650;-0.522;2023-05-10T04:59:21;100312.20;;;10.10
68911;BMP180;55953;51.650;-0.522;2023-05-10T05:01:49;100312.80;;;10.10
68911;BMP180;55953;51.650;-0.522;2023-05-10T05:04:17;100313.00;;;10.16
68911;BMP180;55953;51.650;-0.522;2023-05-10T05:06:45;100313.20;;;10.20
68911;BMP180;55953;51.650;-0.522;2023-05-10T05:09:13;100318.80;;;10.20
68911;BMP180;55953;51.650;-0.522;2023-05-10T05:11:40;100322.40;;;10.30
68911;BMP180;55953;51.650;-0.522;2023-05-10T05:14:08;100323.00;;;10.30
68911;BMP180;55953;51.650;-0.522;2023-05-10T05:16:36;100328.40;;;10.40
68911;BMP180;55953;51.650;-0.522;2023-05-10T05:19:04;100322.80;;;10.40
68911;BMP180;55953;51.650;-0.522;2023-05-10T05:21:32;100327.20;;;10.40
68911;BMP180;55953;51.650;-0.522;2023-05-10T05:24:00;100331.40;;;10.40
68911;BMP180;55953;51.650;-0.522;2023-05-10T05:26:28;100339.20;;;10.40
68911;BMP180;55953;51.650;-0.522;2023-05-10T05:28:56;100335.80;;;10.40
68911;BMP180;55953;51.650;-0.522;2023-05-10T05:31:24;100336.00;;;10.44
68911;BMP180;55953;51.650;-0.522;2023-05-10T05:33:52;100336.00;;;10.42
68911;BMP180;55953;51.650;-0.522;2023-05-10T05:36:20;100336.40;;;10.50
68911;BMP180;55953;51.650;-0.522;2023-05-10T05:38:48;100338.20;;;10.50
68911;BMP180;55953;51.650;-0.522;2023-05-10T05:41:16;100345.00;;;10.60
68911;BMP180;55953;51.650;-0.522;2023-05-10T05:43:44;100349.80;;;10.60
68911;BMP180;55953;51.650;-0.522;2023-05-10T05:46:12;100348.80;;;10.60
68911;BMP180;55953;51.650;-0.522;2023-05-10T05:48:40;100349.60;;;10.70
68911;BMP180;55953;51.650;-0.522;2023-05-10T05:51:07;100356.40;;;10.70
68911;BMP180;55953;51.650;-0.522;2023-05-10T05:53:35;100357.60;;;10.80
68911;BMP180;55953;51.650;-0.522;2023-05-10T05:56:04;100361.80;;;10.80
68911;BMP180;55953;51.650;-0.522;2023-05-10T05:58:32;100363.00;;;10.80
68911;BMP180;55953;51.650;-0.522;2023-05-10T06:00:59;100362.40;;;10.80
68911;BMP180;55953;51.650;-0.522;2023-05-10T06:03:27;100365.00;;;10.90
68911;BMP180;55953;51.650;-0.522;2023-05-10T06:05:55;100369.40;;;10.90
68911;BMP180;55953;51.650;-0.522;2023-05-10T06:08:23;100369.40;;;10.90
68911;BMP180;55953;51.650;-0.522;2023-05-10T06:10:51;100371.40;;;10.94
68911;BMP180;55953;51.650;-0.522;2023-05-10T06:13:18;100363.80;;;11.00
68911;BMP180;55953;51.650;-0.522;2023-05-10T06:15:46;100363.60;;;11.10
68911;BMP180;55953;51.650;-0.522;2023-05-10T06:18:14;100365.20;;;11.10
68911;BMP180;55953;51.650;-0.522;2023-05-10T06:20:42;100361.80;;;11.20
68911;BMP180;55953;51.650;-0.522;2023-05-10T06:23:10;100361.20;;;11.20
68911;BMP180;55953;51.650;-0.522;2023-05-10T06:25:38;100365.40;;;11.30
68911;BMP180;55953;51.650;-0.522;2023-05-10T06:28:06;100367.00;;;11.40
68911;BMP180;55953;51.650;-0.522;2023-05-10T06:30:36;100373.20;;;11.46
68911;BMP180;55953;51.650;-0.522;2023-05-10T06:33:04;100366.80;;;11.50
68911;BMP180;55953;51.650;-0.522;2023-05-10T06:35:33;100374.20;;;11.60
68911;BMP180;55953;51.650;-0.522;2023-05-10T06:38:02;100376.00;;;11.60
68911;BMP180;55953;51.650;-0.522;2023-05-10T06:40:30;100379.80;;;11.70
68911;BMP180;55953;51.650;-0.522;2023-05-10T06:42:58;100380.60;;;11.80
68911;BMP180;55953;51.650;-0.522;2023-05-10T06:45:25;100381.00;;;11.80
68911;BMP180;55953;51.650;-0.522;2023-05-10T06:47:53;100376.20;;;11.80
68911;BMP180;55953;51.650;-0.522;2023-05-10T06:50:21;100381.80;;;11.90
68911;BMP180;55953;51.650;-0.522;2023-05-10T06:52:49;100380.20;;;11.90
68911;BMP180;55953;51.650;-0.522;2023-05-10T06:55:19;100388.80;;;11.90
68911;BMP180;55953;51.650;-0.522;2023-05-10T06:57:47;100390.80;;;12.00
68911;BMP180;55953;51.650;-0.522;2023-05-10T07:00:16;100393.80;;;12.10
68911;BMP180;55953;51.650;-0.522;2023-05-10T07:02:44;100392.20;;;12.20
68911;BMP180;55953;51.650;-0.522;2023-05-10T07:05:13;100395.20;;;12.40
68911;BMP180;55953;51.650;-0.522;2023-05-10T07:07:41;100391.40;;;12.40
68911;BMP180;55953;51.650;-0.522;2023-05-10T07:10:10;100395.80;;;12.50
68911;BMP180;55953;51.650;-0.522;2023-05-10T07:12:38;100394.80;;;12.60
68911;BMP180;55953;51.650;-0.522;2023-05-10T07:15:07;100390.40;;;12.60
68911;BMP180;55953;51.650;-0.522;2023-05-10T07:17:35;100392.40;;;12.62
68911;BMP180;55953;51.650;-0.522;2023-05-10T07:20:03;100394.40;;;12.70
68911;BMP180;55953;51.650;-0.522;2023-05-10T07:22:31;100393.20;;;12.80
68911;BMP180;55953;51.650;-0.522;2023-05-10T07:24:59;100396.60;;;12.90
68911;BMP180;55953;51.650;-0.522;2023-05-10T07:27:27;100401.80;;;12.90
68911;BMP180;55953;51.650;-0.522;2023-05-10T07:29:55;100398.40;;;12.90
68911;BMP180;55953;51.650;-0.522;2023-05-10T07:32:24;100405.40;;;12.82
68911;BMP180;55953;51.650;-0.522;2023-05-10T07:34:52;100405.60;;;12.90
68911;BMP180;55953;51.650;-0.522;2023-05-10T07:37:19;100413.00;;;13.00
68911;BMP180;55953;51.650;-0.522;2023-05-10T07:39:47;100410.20;;;12.94
68911;BMP180;55953;51.650;-0.522;2023-05-10T07:42:15;100410.80;;;12.98
68911;BMP180;55953;51.650;-0.522;2023-05-10T07:44:43;100412.80;;;13.00
68911;BMP180;55953;51.650;-0.522;2023-05-10T07:47:11;100413.40;;;13.00
68911;BMP180;55953;51.650;-0.522;2023-05-10T07:49:39;100410.40;;;13.00
68911;BMP180;55953;51.650;-0.522;2023-05-10T07:52:06;100411.00;;;13.10
68911;BMP180;55953;51.650;-0.522;2023-05-10T07:54:34;100413.00;;;13.20
68911;BMP180;55953;51.650;-0.522;2023-05-10T07:57:02;100415.40;;;13.28
68911;BMP180;55953;51.650;-0.522;2023-05-10T07:59:30;100415.00;;;13.20
68911;BMP180;55953;51.650;-0.522;2023-05-10T08:01:58;100414.80;;;13.22
68911;BMP180;55953;51.650;-0.522;2023-05-10T08:04:26;100411.20;;;13.30
68911;BMP180;55953;51.650;-0.522;2023-05-10T08:06:54;100414.00;;;13.40
68911;BMP180;55953;51.650;-0.522;2023-05-10T08:09:22;100415.80;;;13.50
68911;BMP180;55953;51.650;-0.522;2023-05-10T08:11:51;100420.20;;;13.60
68911;BMP180;55953;51.650;-0.522;2023-05-10T08:14:19;100418.60;;;13.70
68911;BMP180;55953;51.650;-0.522;2023-05-10T08:16:47;100415.80;;;13.78
68911;BMP180;55953;51.650;-0.522;2023-05-10T08:19:15;100413.80;;;13.90
68911;BMP180;55953;51.650;-0.522;2023-05-10T08:21:47;100417.40;;;14.00
68911;BMP180;55953;51.650;-0.522;2023-05-10T08:24:15;100420.40;;;14.00
68911;BMP180;55953;51.650;-0.522;2023-05-10T08:26:43;100424.20;;;13.94
68911;BMP180;55953;51.650;-0.522;2023-05-10T08:29:11;100425.20;;;13.90
68911;BMP180;55953;51.650;-0.522;2023-05-10T08:31:39;100420.60;;;13.98
68911;BMP180;55953;51.650;-0.522;2023-05-10T08:34:07;100416.20;;;14.08
68911;BMP180;55953;51.650;-0.522;2023-05-10T08:36:35;100418.20;;;14.20
68911;BMP180;55953;51.650;-0.522;2023-05-10T08:39:03;100420.40;;;14.30
68911;BMP180;55953;51.650;-0.522;2023-05-10T08:41:38;100420.20;;;14.40
68911;BMP180;55953;51.650;-0.522;2023-05-10T08:44:08;100422.40;;;14.50
68911;BMP180;55953;51.650;-0.522;2023-05-10T08:46:37;100421.80;;;14.40
68911;BMP180;55953;51.650;-0.522;2023-05-10T08:49:16;100419.60;;;14.40
68911;BMP180;55953;51.650;-0.522;2023-05-10T08:51:55;100423.20;;;14.50
68911;BMP180;55953;51.650;-0.522;2023-05-10T08:54:24;100424.40;;;14.50
68911;BMP180;55953;51.650;-0.522;2023-05-10T08:56:52;100425.60;;;14.56
68911;BMP180;55953;51.650;-0.522;2023-05-10T08:59:20;100420.40;;;14.56
68911;BMP180;55953;51.650;-0.522;2023-05-10T09:01:50;100426.20;;;14.60
68911;BMP180;55953;51.650;-0.522;2023-05-10T09:04:20;100419.60;;;14.60
68911;BMP180;55953;51.650;-0.522;2023-05-10T09:06:48;100426.40;;;14.80
68911;BMP180;55953;51.650;-0.522;2023-05-10T09:09:18;100422.20;;;15.00
68911;BMP180;55953;51.650;-0.522;2023-05-10T09:11:47;100423.40;;;15.10
68911;BMP180;55953;51.650;-0.522;2023-05-10T09:14:15;100431.80;;;15.00
68911;BMP180;55953;51.650;-0.522;2023-05-10T09:16:45;100426.00;;;15.00
68911;BMP180;55953;51.650;-0.522;2023-05-10T09:19:13;100424.60;;;15.00
68911;BMP180;55953;51.650;-0.522;2023-05-10T09:21:41;100417.20;;;15.02
68911;BMP180;55953;51.650;-0.522;2023-05-10T09:24:09;100419.00;;;15.10
68911;BMP180;55953;51.650;-0.522;2023-05-10T09:26:47;100421.20;;;15.10
68911;BMP180;55953;51.650;-0.522;2023-05-10T09:29:18;100421.00;;;15.10
68911;BMP180;55953;51.650;-0.522;2023-05-10T09:31:51;100422.20;;;15.20
68911;BMP180;55953;51.650;-0.522;2023-05-10T09:34:30;100423.60;;;15.30
68911;BMP180;55953;51.650;-0.522;2023-05-10T09:37:01;100421.00;;;15.20
68911;BMP180;55953;51.650;-0.522;2023-05-10T09:39:32;100423.60;;;15.38
68911;BMP180;55953;51.650;-0.522;2023-05-10T09:42:07;100423.20;;;15.50
68911;BMP180;55953;51.650;-0.522;2023-05-10T09:44:35;100419.40;;;15.60
68911;BMP180;55953;51.650;-0.522;2023-05-10T09:47:04;100420.40;;;15.72
68911;BMP180;55953;51.650;-0.522;2023-05-10T09:49:32;100425.40;;;15.80
68911;BMP180;55953;51.650;-0.522;2023-05-10T09:52:06;100423.80;;;15.90
68911;BMP180;55953;51.650;-0.522;2023-05-10T09:54:34;100422.40;;;15.90
68911;BMP180;55953;51.650;-0.522;2023-05-10T09:57:03;100424.60;;;15.90
68911;BMP180;55953;51.650;-0.522;2023-05-10T09:59:33;100420.60;;;15.94
68911;BMP180;55953;51.650;-0.522;2023-05-10T10:02:03;100422.20;;;16.00
68911;BMP180;55953;51.650;-0.522;2023-05-10T10:04:31;100420.40;;;16.10
68911;BMP180;55953;51.650;-0.522;2023-05-10T10:07:04;100422.40;;;16.26
68911;BMP180;55953;51.650;-0.522;2023-05-10T10:09:34;100418.20;;;16.30
68911;BMP180;55953;51.650;-0.522;2023-05-10T10:12:02;100422.60;;;16.50
68911;BMP180;55953;51.650;-0.522;2023-05-10T10:14:31;100417.80;;;16.58
68911;BMP180;55953;51.650;-0.522;2023-05-10T10:17:00;100413.20;;;16.70
68911;BMP180;55953;51.650;-0.522;2023-05-10T10:19:34;100417.00;;;17.10
68911;BMP180;55953;51.650;-0.522;2023-05-10T10:22:03;100414.60;;;17.18
68911;BMP180;55953;51.650;-0.522;2023-05-10T10:24:32;100412.40;;;17.30
68911;BMP180;55953;51.650;-0.522;2023-05-10T10:27:11;100411.20;;;17.54
68911;BMP180;55953;51.650;-0.522;2023-05-10T10:29:52;100412.20;;;17.50
68911;BMP180;55953;51.650;-0.522;2023-05-10T10:32:38;100415.60;;;17.70
68911;BMP180;55953;51.650;-0.522;2023-05-10T10:35:10;100419.20;;;17.80
68911;BMP180;55953;51.650;-0.522;2023-05-10T10:37:45;100414.40;;;17.80
68911;BMP180;55953;51.650;-0.522;2023-05-10T10:40:24;100411.40;;;17.80
68911;BMP180;55953;51.650;-0.522;2023-05-10T10:42:54;100411.40;;;17.80
68911;BMP180;55953;51.650;-0.522;2023-05-10T10:45:24;100414.80;;;17.78
68911;BMP180;55953;51.650;-0.522;2023-05-10T10:48:21;100421.80;;;17.70
68911;BMP180;55953;51.650;-0.522;2023-05-10T10:50:57;100415.20;;;17.42
68911;BMP180;55953;51.650;-0.522;2023-05-10T10:53:28;100408.20;;;17.20
68911;BMP180;55953;51.650;-0.522;2023-05-10T10:56:06;100410.60;;;17.10
68911;BMP180;55953;51.650;-0.522;2023-05-10T10:58:38;100413.20;;;17.00
68911;BMP180;55953;51.650;-0.522;2023-05-10T11:01:18;100407.00;;;17.10
68911;BMP180;55953;51.650;-0.522;2023-05-10T11:04:18;100401.20;;;17.24
68911;BMP180;55953;51.650;-0.522;2023-05-10T11:06:46;100400.20;;;17.44
68911;BMP180;55953;51.650;-0.522;2023-05-10T11:09:14;100394.80;;;17.64
68911;BMP180;55953;51.650;-0.522;2023-05-10T11:11:53;100401.80;;;17.86
68911;BMP180;55953;51.650;-0.522;2023-05-10T11:14:23;100394.80;;;18.00
68911;BMP180;55953;51.650;-0.522;2023-05-10T11:16:51;100394.20;;;18.00
68911;BMP180;55953;51.650;-0.522;2023-05-10T11:19:19;100394.00;;;18.04
68911;BMP180;55953;51.650;-0.522;2023-05-10T11:22:11;100392.80;;;18.00
68911;BMP180;55953;51.650;-0.522;2023-05-10T11:24:57;100395.00;;;18.00
68911;BMP180;55953;51.650;-0.522;2023-05-10T11:27:26;100398.80;;;18.00
68911;BMP180;55953;51.650;-0.522;2023-05-10T11:29:53;100398.40;;;18.00
68911;BMP180;55953;51.650;-0.522;2023-05-10T11:32:22;100405.80;;;17.60
68911;BMP180;55953;51.650;-0.522;2023-05-10T11:34:50;100411.60;;;17.40
68911;BMP180;55953;51.650;-0.522;2023-05-10T11:37:18;100412.60;;;17.30
68911;BMP180;55953;51.650;-0.522;2023-05-10T11:39:46;100413.40;;;17.10
68911;BMP180;55953;51.650;-0.522;2023-05-10T11:42:18;100409.20;;;17.00
68911;BMP180;55953;51.650;-0.522;2023-05-10T11:44:47;100407.20;;;17.08
68911;BMP180;55953;51.650;-0.522;2023-05-10T11:47:15;100406.60;;;17.00
68911;BMP180;55953;51.650;-0.522;2023-05-10T11:49:44;100408.60;;;17.00
68911;BMP180;55953;51.650;-0.522;2023-05-10T11:52:12;100404.80;;;17.24
68911;BMP180;55953;51.650;-0.522;2023-05-10T11:54:54;100405.00;;;17.40
68911;BMP180;55953;51.650;-0.522;2023-05-10T11:57:26;100404.40;;;17.52
68911;BMP180;55953;51.650;-0.522;2023-05-10T11:59:56;100400.80;;;17.60
68911;BMP180;55953;51.650;-0.522;2023-05-10T12:02:25;100403.80;;;17.78
68911;BMP180;55953;51.650;-0.522;2023-05-10T12:04:55;100397.60;;;18.08
68911;BMP180;55953;51.650;-0.522;2023-05-10T12:07:26;100390.80;;;18.44
68911;BMP180;55953;51.650;-0.522;2023-05-10T12:10:09;100396.00;;;18.42
68911;BMP180;55953;51.650;-0.522;2023-05-10T12:12:42;100391.60;;;18.30
68911;BMP180;55953;51.650;-0.522;2023-05-10T12:15:22;100389.40;;;18.50
68911;BMP180;55953;51.650;-0.522;2023-05-10T12:17:51;100387.00;;;18.74
68911;BMP180;55953;51.650;-0.522;2023-05-10T12:20:21;100390.60;;;18.90
68911;BMP180;55953;51.650;-0.522;2023-05-10T12:22:53;100392.60;;;18.90
68911;BMP180;55953;51.650;-0.522;2023-05-10T12:25:24;100388.80;;;18.90
68911;BMP180;55953;51.650;-0.522;2023-05-10T12:27:58;100389.20;;;18.90
68911;BMP180;55953;51.650;-0.522;2023-05-10T12:30:32;100390.20;;;18.96
68911;BMP180;55953;51.650;-0.522;2023-05-10T12:33:12;100393.00;;;18.90
68911;BMP180;55953;51.650;-0.522;2023-05-10T12:35:53;100395.80;;;19.10
68911;BMP180;55953;51.650;-0.522;2023-05-10T12:38:35;100394.20;;;19.10
68911;BMP180;55953;51.650;-0.522;2023-05-10T12:41:04;100397.00;;;18.90
68911;BMP180;55953;51.650;-0.522;2023-05-10T12:43:34;100403.20;;;18.70
68911;BMP180;55953;51.650;-0.522;2023-05-10T12:46:14;100405.20;;;18.50
68911;BMP180;55953;51.650;-0.522;2023-05-10T12:48:44;100407.20;;;18.30
68911;BMP180;55953;51.650;-0.522;2023-05-10T12:51:12;100408.40;;;18.10
68911;BMP180;55953;51.650;-0.522;2023-05-10T12:53:43;100405.40;;;18.00
68911;BMP180;55953;51.650;-0.522;2023-05-10T12:56:16;100408.20;;;17.98
68911;BMP180;55953;51.650;-0.522;2023-05-10T12:58:44;100414.40;;;18.38
68911;BMP180;55953;51.650;-0.522;2023-05-10T13:01:15;100416.20;;;18.60
68911;BMP180;55953;51.650;-0.522;2023-05-10T13:03:43;100415.60;;;18.70
68911;BMP180;55953;51.650;-0.522;2023-05-10T13:06:13;100413.60;;;18.90
68911;BMP180;55953;51.650;-0.522;2023-05-10T13:08:41;100405.00;;;19.04
68911;BMP180;55953;51.650;-0.522;2023-05-10T13:11:08;100400.40;;;19.10
68911;BMP180;55953;51.650;-0.522;2023-05-10T13:13:37;100401.80;;;19.48
68911;BMP180;55953;51.650;-0.522;2023-05-10T13:16:05;100404.00;;;19.70
68911;BMP180;55953;51.650;-0.522;2023-05-10T13:18:33;100406.40;;;19.80
68911;BMP180;55953;51.650;-0.522;2023-05-10T13:21:01;100412.60;;;19.82
68911;BMP180;55953;51.650;-0.522;2023-05-10T13:23:31;100414.60;;;19.98
68911;BMP180;55953;51.650;-0.522;2023-05-10T13:25:59;100413.80;;;20.10
68911;BMP180;55953;51.650;-0.522;2023-05-10T13:28:27;100413.20;;;20.10
68911;BMP180;55953;51.650;-0.522;2023-05-10T13:30:55;100404.40;;;20.36
68911;BMP180;55953;51.650;-0.522;2023-05-10T13:33:23;100401.60;;;20.62
68911;BMP180;55953;51.650;-0.522;2023-05-10T13:35:51;100406.20;;;20.70
68911;BMP180;55953;51.650;-0.522;2023-05-10T13:38:22;100403.20;;;20.68
68911;BMP180;55953;51.650;-0.522;2023-05-10T13:40:49;100409.40;;;20.30
68911;BMP180;55953;51.650;-0.522;2023-05-10T13:43:20;100410.00;;;20.00
68911;BMP180;55953;51.650;-0.522;2023-05-10T13:45:48;100407.00;;;19.78
68911;BMP180;55953;51.650;-0.522;2023-05-10T13:48:16;100410.00;;;19.54
68911;BMP180;55953;51.650;-0.522;2023-05-10T13:50:43;100406.60;;;19.30
68911;BMP180;55953;51.650;-0.522;2023-05-10T13:53:11;100408.40;;;19.00
68911;BMP180;55953;51.650;-0.522;2023-05-10T13:55:40;100415.60;;;18.80
68911;BMP180;55953;51.650;-0.522;2023-05-10T13:58:08;100417.60;;;18.60
68911;BMP180;55953;51.650;-0.522;2023-05-10T14:00:35;100420.60;;;18.20
68911;BMP180;55953;51.650;-0.522;2023-05-10T14:03:04;100421.80;;;17.88
68911;BMP180;55953;51.650;-0.522;2023-05-10T14:05:32;100422.00;;;17.60
68911;BMP180;55953;51.650;-0.522;2023-05-10T14:08:00;100429.80;;;17.50
68911;BMP180;55953;51.650;-0.522;2023-05-10T14:10:28;100430.80;;;17.30
68911;BMP180;55953;51.650;-0.522;2023-05-10T14:12:56;100431.40;;;17.22